createdAt,value
2018-09-02T00:00:38.032Z,20.70
2018-09-02T00:03:06.941Z,20.70
2018-09-02T00:05:35.897Z,20.70
2018-09-02T00:08:04.801Z,20.60
2018-09-02T00:10:33.792Z,20.60
2018-09-02T00:13:02.697Z,20.60
2018-09-02T00:15:31.680Z,20.60
2018-09-02T00:18:00.617Z,20.60
2018-09-02T00:20:29.562Z,20.60
2018-09-02T00:22:58.504Z,20.60
2018-09-02T00:25:27.456Z,20.60
2018-09-02T00:27:56.376Z,20.60
2018-09-02T00:30:25.349Z,20.60
2018-09-02T00:32:54.291Z,20.60
2018-09-02T00:35:23.287Z,20.60
2018-09-02T00:37:52.194Z,20.60
2018-09-02T00:40:21.153Z,20.60
2018-09-02T00:42:50.074Z,20.60
2018-09-02T00:45:19.148Z,20.60
2018-09-02T00:47:48.056Z,20.60
2018-09-02T00:50:17.013Z,20.60
2018-09-02T00:52:45.917Z,20.60
2018-09-02T00:55:14.856Z,20.50
2018-09-02T00:57:43.771Z,20.50
2018-09-02T01:00:12.713Z,20.50
2018-09-02T01:02:41.615Z,20.50
2018-09-02T01:05:10.512Z,20.50
2018-09-02T01:07:39.444Z,20.50
2018-09-02T01:10:08.348Z,20.50
2018-09-02T01:12:37.306Z,20.50
2018-09-02T01:15:06.473Z,20.50
2018-09-02T01:17:35.408Z,20.50
2018-09-02T01:20:04.460Z,20.50
2018-09-02T01:22:33.417Z,20.50
2018-09-02T01:25:02.373Z,20.50
2018-09-02T01:27:31.365Z,20.50
2018-09-02T01:30:00.572Z,20.50
2018-09-02T01:32:29.521Z,20.50
2018-09-02T01:34:58.493Z,20.40
2018-09-02T01:37:27.456Z,20.50
2018-09-02T01:39:56.364Z,20.40
2018-09-02T01:42:25.361Z,20.50
2018-09-02T01:44:54.281Z,20.40
2018-09-02T01:47:23.236Z,20.50
2018-09-02T01:49:52.181Z,20.40
2018-09-02T01:52:21.130Z,20.40
2018-09-02T01:54:50.043Z,20.40
2018-09-02T01:57:19.016Z,20.40
2018-09-02T01:59:48.001Z,20.40
2018-09-02T02:02:16.973Z,20.40
2018-09-02T02:04:45.885Z,20.40
2018-09-02T02:07:14.836Z,20.40
2018-09-02T02:09:44.354Z,20.40
2018-09-02T02:12:13.288Z,20.40
2018-09-02T02:14:42.273Z,20.40
2018-09-02T02:17:11.305Z,20.40
2018-09-02T02:19:40.304Z,20.40
2018-09-02T02:22:09.245Z,20.30
2018-09-02T02:24:38.265Z,20.30
2018-09-02T02:27:07.325Z,20.30
2018-09-02T02:29:36.313Z,20.30
2018-09-02T02:32:05.406Z,20.30
2018-09-02T02:34:34.337Z,20.30
2018-09-02T02:37:03.264Z,20.30
2018-09-02T02:39:32.201Z,20.30
2018-09-02T02:42:01.188Z,20.30
2018-09-02T02:44:30.177Z,20.30
2018-09-02T02:46:59.152Z,20.30
2018-09-02T02:49:28.052Z,20.30
2018-09-02T02:51:57.063Z,20.30
2018-09-02T02:54:25.977Z,20.30
2018-09-02T02:56:54.917Z,20.30
2018-09-02T02:59:23.880Z,20.30
2018-09-02T03:01:52.834Z,20.30
2018-09-02T03:04:21.809Z,20.30
2018-09-02T03:06:50.773Z,20.30
2018-09-02T03:09:19.716Z,20.30
2018-09-02T03:11:48.750Z,20.30
2018-09-02T03:14:17.709Z,20.30
2018-09-02T03:16:46.650Z,20.20
2018-09-02T03:19:15.606Z,20.20
2018-09-02T03:21:44.553Z,20.20
2018-09-02T03:24:13.500Z,20.30
2018-09-02T03:26:42.422Z,20.20
2018-09-02T03:29:11.373Z,20.30
2018-09-02T03:31:40.280Z,20.20
2018-09-02T03:34:09.252Z,20.20
2018-09-02T03:36:38.351Z,20.20
2018-09-02T03:39:07.632Z,20.20
2018-09-02T03:41:36.548Z,20.20
2018-09-02T03:44:05.505Z,20.20
2018-09-02T03:46:34.405Z,20.10
2018-09-02T03:49:03.602Z,20.10
2018-09-02T03:51:32.525Z,20.10
2018-09-02T03:54:01.457Z,20.10
2018-09-02T03:56:30.391Z,20.10
2018-09-02T03:58:59.482Z,20.10
2018-09-02T04:01:28.418Z,20.10
2018-09-02T04:03:57.358Z,20.10
2018-09-02T04:06:26.273Z,20.10
2018-09-02T04:08:55.397Z,20.10
2018-09-02T04:11:24.355Z,20.10
2018-09-02T04:13:53.265Z,20.10
2018-09-02T04:16:22.181Z,20.00
2018-09-02T04:18:51.116Z,20.00
2018-09-02T04:21:20.045Z,20.00
2018-09-02T04:23:48.976Z,20.00
2018-09-02T04:26:17.878Z,20.00
2018-09-02T04:28:46.825Z,20.00
2018-09-02T04:31:15.736Z,20.00
2018-09-02T04:33:44.840Z,20.00
2018-09-02T04:36:13.821Z,20.00
2018-09-02T04:38:42.766Z,20.00
2018-09-02T04:41:11.765Z,20.00
2018-09-02T04:43:40.701Z,20.00
2018-09-02T04:46:09.597Z,20.00
2018-09-02T04:48:38.554Z,20.00
2018-09-02T04:51:07.696Z,20.00
2018-09-02T04:53:36.634Z,20.00
2018-09-02T04:56:05.548Z,20.00
2018-09-02T04:58:34.490Z,20.00
2018-09-02T05:01:03.418Z,20.00
2018-09-02T05:03:32.360Z,20.00
2018-09-02T05:06:01.262Z,19.90
2018-09-02T05:08:30.207Z,19.90
2018-09-02T05:10:59.129Z,19.90
2018-09-02T05:13:28.117Z,19.90
2018-09-02T05:15:57.053Z,19.90
2018-09-02T05:18:26.205Z,19.90
2018-09-02T05:20:55.117Z,19.90
2018-09-02T05:23:24.049Z,19.90
2018-09-02T05:25:53.030Z,19.90
2018-09-02T05:28:21.974Z,19.90
2018-09-02T05:30:50.984Z,19.80
2018-09-02T05:33:19.920Z,19.80
2018-09-02T05:35:48.873Z,19.80
2018-09-02T05:38:17.838Z,19.70
2018-09-02T05:40:46.749Z,19.70
2018-09-02T05:43:15.673Z,19.60
2018-09-02T05:45:44.648Z,19.50
2018-09-02T05:48:13.591Z,19.40
2018-09-02T05:50:42.653Z,19.30
2018-09-02T05:53:11.594Z,19.20
2018-09-02T05:55:40.570Z,19.10
2018-09-02T05:58:09.507Z,19.00
2018-09-02T06:00:38.589Z,18.90
2018-09-02T06:03:07.553Z,18.80
2018-09-02T06:05:36.639Z,18.80
2018-09-02T06:08:05.605Z,18.70
2018-09-02T06:10:34.647Z,18.70
2018-09-02T06:13:03.597Z,18.60
2018-09-02T06:15:32.570Z,18.60
2018-09-02T06:18:01.537Z,18.60
2018-09-02T06:20:30.525Z,18.50
2018-09-02T06:22:59.433Z,18.50
2018-09-02T06:25:28.393Z,18.50
2018-09-02T06:27:57.529Z,18.50
2018-09-02T06:30:26.492Z,18.50
2018-09-02T06:32:56.667Z,18.50
2018-09-02T06:35:25.650Z,18.50
2018-09-02T06:37:54.625Z,18.50
2018-09-02T06:40:23.617Z,18.40
2018-09-02T06:42:52.540Z,18.50
2018-09-02T06:45:21.617Z,18.50
2018-09-02T06:47:50.655Z,18.50
2018-09-02T06:50:19.649Z,18.50
2018-09-02T06:52:48.598Z,18.50
2018-09-02T06:55:17.596Z,18.50
2018-09-02T06:57:46.719Z,18.50
2018-09-02T07:00:15.678Z,18.50
2018-09-02T07:02:44.611Z,18.50
2018-09-02T07:05:13.570Z,18.50
2018-09-02T07:07:42.500Z,18.50
2018-09-02T07:10:11.470Z,18.50
2018-09-02T07:12:40.395Z,18.50
2018-09-02T07:15:09.361Z,18.50
2018-09-02T07:17:38.304Z,18.50
2018-09-02T07:20:07.895Z,18.50
2018-09-02T07:22:36.863Z,18.60
2018-09-02T07:25:05.970Z,18.60
2018-09-02T07:27:34.917Z,18.60
2018-09-02T07:30:04.736Z,18.60
2018-09-02T07:32:33.690Z,18.60
2018-09-02T07:35:03.292Z,18.60
2018-09-02T07:37:32.370Z,18.60
2018-09-02T07:40:01.326Z,18.70
2018-09-02T07:42:30.518Z,18.70
2018-09-02T07:44:59.577Z,18.70
2018-09-02T07:47:28.608Z,18.80
2018-09-02T07:49:57.661Z,18.80
2018-09-02T07:52:26.630Z,18.90
2018-09-02T07:54:55.946Z,18.90
2018-09-02T07:57:24.913Z,18.90
2018-09-02T07:59:53.864Z,18.90
2018-09-02T08:02:22.979Z,19.00
2018-09-02T08:04:51.931Z,19.00
2018-09-02T08:07:20.894Z,19.00
2018-09-02T08:09:49.865Z,19.10
2018-09-02T08:12:21.038Z,19.10
2018-09-02T08:14:50.134Z,19.10
2018-09-02T08:17:19.269Z,19.10
2018-09-02T08:19:48.352Z,19.10
2018-09-02T08:22:17.352Z,19.10
2018-09-02T08:24:46.325Z,19.20
2018-09-02T08:27:15.270Z,19.20
2018-09-02T08:29:44.196Z,19.20
2018-09-02T08:32:13.131Z,19.20
2018-09-02T08:34:46.785Z,19.20
2018-09-02T08:37:15.717Z,19.30
2018-09-02T08:39:45.744Z,19.30
2018-09-02T08:42:14.693Z,19.30
2018-09-02T08:44:49.644Z,19.30
2018-09-02T08:47:18.615Z,19.30
2018-09-02T08:50:06.521Z,19.30
2018-09-02T08:52:35.481Z,19.30
2018-09-02T08:55:04.825Z,19.30
2018-09-02T08:57:33.760Z,19.30
2018-09-02T09:00:03.047Z,19.30
2018-09-02T09:02:32.001Z,19.30
2018-09-02T09:05:01.085Z,19.30
2018-09-02T09:07:31.254Z,19.20
2018-09-02T09:10:01.250Z,19.30
2018-09-02T09:12:30.206Z,19.30
2018-09-02T09:14:59.120Z,19.20
2018-09-02T09:17:28.113Z,19.30
2018-09-02T09:19:57.057Z,19.20
2018-09-02T09:22:26.068Z,19.30
2018-09-02T09:24:55.052Z,19.30
2018-09-02T09:27:24.017Z,19.30
2018-09-02T09:29:53.038Z,19.30
2018-09-02T09:32:22.001Z,19.40
2018-09-02T09:34:50.937Z,19.40
2018-09-02T09:37:19.920Z,19.40
2018-09-02T09:39:48.834Z,19.40
2018-09-02T09:42:17.933Z,19.40
2018-09-02T09:44:46.838Z,19.40
2018-09-02T09:47:15.779Z,19.40
2018-09-02T09:49:44.689Z,19.40
2018-09-02T09:52:13.732Z,19.40
2018-09-02T09:54:42.834Z,19.40
2018-09-02T09:57:11.788Z,19.40
2018-09-02T09:59:41.185Z,19.40
2018-09-02T10:02:10.157Z,19.40
2018-09-02T10:04:39.065Z,19.30
2018-09-02T10:07:08.009Z,19.30
2018-09-02T10:09:36.914Z,19.30
2018-09-02T10:12:05.908Z,19.40
2018-09-02T10:14:34.842Z,19.40
2018-09-02T10:17:03.845Z,19.40
2018-09-02T10:19:32.762Z,19.40
2018-09-02T10:22:02.193Z,19.40
2018-09-02T10:24:31.117Z,19.40
2018-09-02T10:27:00.093Z,19.40
2018-09-02T10:29:29.017Z,19.40
2018-09-02T10:31:58.087Z,19.40
2018-09-02T10:34:27.100Z,19.40
2018-09-02T10:36:56.148Z,19.40
2018-09-02T10:39:25.257Z,19.40
2018-09-02T10:41:54.389Z,19.40
2018-09-02T10:44:23.369Z,19.40
2018-09-02T10:46:52.320Z,19.40
2018-09-02T10:49:21.361Z,19.50
2018-09-02T10:51:50.325Z,19.50
2018-09-02T10:54:19.310Z,19.50
2018-09-02T10:56:48.224Z,19.50
2018-09-02T10:59:17.188Z,19.60
2018-09-02T11:01:46.124Z,19.60
2018-09-02T11:04:15.088Z,19.60
2018-09-02T11:06:48.375Z,19.70
2018-09-02T11:09:17.344Z,19.70
2018-09-02T11:11:47.324Z,19.70
2018-09-02T11:14:16.279Z,19.80
2018-09-02T11:16:45.223Z,19.80
2018-09-02T11:19:14.196Z,19.80
2018-09-02T11:21:43.142Z,19.80
2018-09-02T11:24:12.162Z,19.90
2018-09-02T11:26:41.131Z,19.90
2018-09-02T11:29:10.242Z,19.90
2018-09-02T11:31:39.214Z,19.90
2018-09-02T11:34:08.361Z,19.90
2018-09-02T11:36:37.293Z,19.90
2018-09-02T11:39:09.131Z,19.90
2018-09-02T11:41:38.105Z,20.00
2018-09-02T11:44:07.439Z,19.90
2018-09-02T11:46:36.381Z,19.90
2018-09-02T11:49:05.602Z,19.90
2018-09-02T11:51:34.532Z,19.90
2018-09-02T11:54:03.498Z,19.90
2018-09-02T11:56:32.404Z,19.90
2018-09-02T11:59:01.453Z,19.90
2018-09-02T12:01:30.573Z,19.90
2018-09-02T12:03:59.603Z,19.90
2018-09-02T12:06:28.956Z,19.90
2018-09-02T12:08:57.897Z,19.90
2018-09-02T12:11:26.797Z,19.90
2018-09-02T12:13:55.815Z,19.90
2018-09-02T12:16:25.870Z,19.90
2018-09-02T12:18:54.916Z,19.90
2018-09-02T12:21:23.863Z,19.90
2018-09-02T12:23:52.826Z,19.90
2018-09-02T12:26:21.754Z,19.90
2018-09-02T12:28:50.721Z,19.90
2018-09-02T12:31:19.652Z,19.90
2018-09-02T12:33:48.778Z,19.90
2018-09-02T12:36:17.742Z,19.90
2018-09-02T12:38:46.719Z,19.90
2018-09-02T12:41:15.676Z,19.90
2018-09-02T12:43:44.757Z,19.90
2018-09-02T12:46:13.693Z,19.90
2018-09-02T12:48:42.670Z,19.90
2018-09-02T12:51:11.693Z,19.90
2018-09-02T12:53:40.659Z,19.90
2018-09-02T12:56:09.590Z,19.90
2018-09-02T12:58:38.569Z,19.90
2018-09-02T13:01:07.691Z,19.90
2018-09-02T13:03:36.636Z,20.00
2018-09-02T13:06:05.594Z,20.00
2018-09-02T13:08:34.654Z,20.00
2018-09-02T13:11:04.158Z,20.00
2018-09-02T13:13:33.100Z,20.10
2018-09-02T13:16:02.182Z,20.10
2018-09-02T13:18:31.124Z,20.10
2018-09-02T13:21:00.105Z,20.10
2018-09-02T13:23:29.056Z,20.10
2018-09-02T13:25:58.042Z,20.20
2018-09-02T13:28:26.975Z,20.20
2018-09-02T13:30:55.954Z,20.20
2018-09-02T13:33:24.900Z,20.20
2018-09-02T13:35:53.972Z,20.20
2018-09-02T13:38:22.903Z,20.20
2018-09-02T13:40:51.886Z,20.20
2018-09-02T13:43:20.883Z,20.20
2018-09-02T13:45:49.844Z,20.20
2018-09-02T13:48:18.801Z,20.20
2018-09-02T13:50:47.781Z,20.20
2018-09-02T13:53:16.689Z,20.20
2018-09-02T13:55:45.686Z,20.20
2018-09-02T13:58:14.716Z,20.10
2018-09-02T14:00:43.736Z,20.10
2018-09-02T14:03:12.652Z,20.10
2018-09-02T14:05:41.612Z,20.10
2018-09-02T14:08:10.630Z,20.10
2018-09-02T14:10:39.833Z,20.10
2018-09-02T14:13:08.858Z,20.10
2018-09-02T14:15:37.817Z,20.10
2018-09-02T14:18:06.852Z,20.10
2018-09-02T14:20:35.864Z,20.10
2018-09-02T14:23:04.889Z,20.10
2018-09-02T14:25:33.869Z,20.10
2018-09-02T14:28:02.800Z,20.10
2018-09-02T14:30:31.782Z,20.10
2018-09-02T14:33:00.800Z,20.20
2018-09-02T14:35:29.838Z,20.10
2018-09-02T14:37:59.037Z,20.20
2018-09-02T14:40:28.002Z,20.20
2018-09-02T14:42:57.040Z,20.20
2018-09-02T14:45:26.060Z,20.20
2018-09-02T14:47:55.013Z,20.20
2018-09-02T14:50:23.991Z,20.20
2018-09-02T14:52:52.926Z,20.20
2018-09-02T14:55:21.984Z,20.20
2018-09-02T14:57:51.019Z,20.20
2018-09-02T15:00:20.008Z,20.20
2018-09-02T15:02:48.973Z,20.20
2018-09-02T15:05:17.996Z,20.20
2018-09-02T15:07:46.924Z,20.20
2018-09-02T15:10:15.890Z,20.20
2018-09-02T15:12:44.828Z,20.20
2018-09-02T15:15:13.805Z,20.20
2018-09-02T15:17:42.770Z,20.20
2018-09-02T15:20:11.708Z,20.20
2018-09-02T15:22:40.626Z,20.20
2018-09-02T15:25:09.576Z,20.20
2018-09-02T15:27:38.519Z,20.20
2018-09-02T15:30:07.676Z,20.20
2018-09-02T15:32:36.766Z,20.20
2018-09-02T15:35:06.015Z,20.20
2018-09-02T15:37:34.957Z,20.20
2018-09-02T15:40:04.414Z,20.20
2018-09-02T15:42:33.857Z,20.20
2018-09-02T15:45:03.425Z,20.20
2018-09-02T15:47:32.389Z,20.10
2018-09-02T15:50:01.372Z,20.20
2018-09-02T15:52:30.423Z,20.20
2018-09-02T15:54:59.349Z,20.10
2018-09-02T15:57:28.394Z,20.10
2018-09-02T15:59:57.324Z,20.10
2018-09-02T16:02:26.305Z,20.10
2018-09-02T16:04:55.325Z,20.10
2018-09-02T16:07:28.418Z,20.10
2018-09-02T16:09:57.438Z,20.10
2018-09-02T16:12:26.753Z,20.10
2018-09-02T16:14:56.117Z,20.10
2018-09-02T16:17:25.096Z,20.10
2018-09-02T16:19:54.199Z,20.10
2018-09-02T16:22:23.154Z,20.10
2018-09-02T16:24:52.082Z,20.10
2018-09-02T16:27:21.046Z,20.10
2018-09-02T16:29:49.958Z,20.10
2018-09-02T16:32:19.014Z,20.10
2018-09-02T16:34:48.014Z,20.10
2018-09-02T16:37:16.986Z,20.10
2018-09-02T16:39:45.960Z,20.10
2018-09-02T16:42:15.058Z,20.10
2018-09-02T16:44:43.968Z,20.10
2018-09-02T16:47:13.029Z,20.10
2018-09-02T16:49:41.958Z,20.10
2018-09-02T16:52:10.941Z,20.10
2018-09-02T16:54:39.871Z,20.10
2018-09-02T16:57:08.813Z,20.10
2018-09-02T16:59:37.736Z,20.10
2018-09-02T17:02:06.871Z,20.10
2018-09-02T17:04:37.833Z,20.10
2018-09-02T17:07:06.869Z,20.10
2018-09-02T17:09:35.816Z,20.10
2018-09-02T17:12:04.971Z,20.10
2018-09-02T17:14:33.760Z,20.10
2018-09-02T17:17:02.736Z,20.10
2018-09-02T17:19:33.994Z,20.10
2018-09-02T17:22:03.135Z,20.10
2018-09-02T17:24:32.109Z,20.10
2018-09-02T17:27:01.097Z,20.20
2018-09-02T17:29:30.035Z,20.10
2018-09-02T17:32:01.408Z,20.10
2018-09-02T17:34:30.377Z,20.20
2018-09-02T17:36:59.423Z,20.10
2018-09-02T17:39:28.353Z,20.10
2018-09-02T17:41:57.315Z,20.10
2018-09-02T17:44:26.245Z,20.10
2018-09-02T17:46:55.232Z,20.10
2018-09-02T17:49:24.196Z,20.10
2018-09-02T17:51:53.164Z,20.10
2018-09-02T17:54:22.186Z,20.10
2018-09-02T17:56:51.136Z,20.10
2018-09-02T17:59:20.254Z,20.00
2018-09-02T18:01:49.347Z,20.00
2018-09-02T18:04:18.351Z,20.00
2018-09-02T18:06:47.289Z,20.00
2018-09-02T18:09:16.233Z,20.00
2018-09-02T18:11:45.352Z,20.00
2018-09-02T18:14:14.323Z,20.00
2018-09-02T18:16:43.351Z,20.00
2018-09-02T18:19:12.350Z,20.00
2018-09-02T18:21:41.254Z,19.90
2018-09-02T18:24:10.211Z,19.90
2018-09-02T18:26:39.122Z,19.90
2018-09-02T18:29:08.066Z,19.90
2018-09-02T18:31:37.391Z,19.90
2018-09-02T18:34:06.357Z,19.90
2018-09-02T18:36:35.390Z,19.90
2018-09-02T18:39:06.461Z,19.90
2018-09-02T18:41:35.393Z,19.90
2018-09-02T18:44:04.571Z,19.80
2018-09-02T18:46:33.669Z,19.80
2018-09-02T18:49:02.708Z,19.80
2018-09-02T18:51:31.659Z,19.80
2018-09-02T18:54:00.582Z,19.80
2018-09-02T18:56:29.529Z,19.80
2018-09-02T18:58:58.641Z,19.80
2018-09-02T19:01:27.573Z,19.80
2018-09-02T19:03:56.676Z,19.70
2018-09-02T19:06:25.598Z,19.70
2018-09-02T19:08:54.558Z,19.70
2018-09-02T19:11:23.474Z,19.70
2018-09-02T19:13:52.453Z,19.70
2018-09-02T19:16:21.365Z,19.70
2018-09-02T19:18:50.353Z,19.60
2018-09-02T19:21:19.305Z,19.70
2018-09-02T19:23:48.260Z,19.60
2018-09-02T19:26:17.182Z,19.60
2018-09-02T19:28:46.114Z,19.60
2018-09-02T19:31:15.027Z,19.60
2018-09-02T19:33:44.052Z,19.60
2018-09-02T19:36:13.011Z,19.60
2018-09-02T19:38:42.114Z,19.60
2018-09-02T19:41:11.104Z,19.60
2018-09-02T19:43:40.066Z,19.60
2018-09-02T19:46:08.989Z,19.60
2018-09-02T19:48:37.951Z,19.60
2018-09-02T19:51:07.033Z,19.60
2018-09-02T19:53:36.580Z,19.60
2018-09-02T19:56:05.512Z,19.60
2018-09-02T19:58:34.538Z,19.60
2018-09-02T20:01:03.476Z,19.60
2018-09-02T20:03:32.649Z,19.60
2018-09-02T20:06:01.651Z,19.60
2018-09-02T20:08:30.705Z,19.60
2018-09-02T20:10:59.665Z,19.60
2018-09-02T20:13:28.581Z,19.60
2018-09-02T20:15:57.576Z,19.60
2018-09-02T20:18:26.477Z,19.60
2018-09-02T20:20:55.436Z,19.50
2018-09-02T20:23:24.415Z,19.50
2018-09-02T20:25:53.390Z,19.50
2018-09-02T20:28:22.308Z,19.50
2018-09-02T20:30:51.268Z,19.50
2018-09-02T20:33:20.338Z,19.50
2018-09-02T20:35:49.417Z,19.50
2018-09-02T20:38:18.387Z,19.50
2018-09-02T20:40:47.342Z,19.50
2018-09-02T20:43:16.266Z,19.50
2018-09-02T20:45:45.209Z,19.50
2018-09-02T20:48:14.142Z,19.50
2018-09-02T20:50:43.099Z,19.50
2018-09-02T20:53:12.010Z,19.50
2018-09-02T20:55:41.045Z,19.50
2018-09-02T20:58:09.983Z,19.50
2018-09-02T21:00:38.941Z,19.50
2018-09-02T21:03:07.861Z,19.50
2018-09-02T21:05:36.897Z,19.50
2018-09-02T21:08:05.898Z,19.40
2018-09-02T21:10:34.912Z,19.40
2018-09-02T21:13:03.918Z,19.40
2018-09-02T21:15:32.891Z,19.40
2018-09-02T21:18:01.894Z,19.40
2018-09-02T21:20:30.930Z,19.40
2018-09-02T21:22:59.896Z,19.40
2018-09-02T21:25:28.874Z,19.40
2018-09-02T21:27:57.815Z,19.40
2018-09-02T21:30:27.028Z,19.40
2018-09-02T21:32:55.998Z,19.40
2018-09-02T21:35:25.013Z,19.30
2018-09-02T21:37:53.969Z,19.30
2018-09-02T21:40:22.945Z,19.30
2018-09-02T21:42:51.877Z,19.30
2018-09-02T21:45:20.877Z,19.30
2018-09-02T21:47:49.818Z,19.30
2018-09-02T21:50:18.866Z,19.30
2018-09-02T21:52:47.882Z,19.30
2018-09-02T21:55:16.829Z,19.30
2018-09-02T21:57:45.760Z,19.30
2018-09-02T22:00:16.473Z,19.30
2018-09-02T22:02:45.685Z,19.30
2018-09-02T22:05:15.557Z,19.30
2018-09-02T22:07:44.502Z,19.30
2018-09-02T22:10:13.661Z,19.30
2018-09-02T22:12:42.589Z,19.30
2018-09-02T22:15:11.653Z,19.20
2018-09-02T22:17:40.644Z,19.20
2018-09-02T22:20:09.601Z,19.30
2018-09-02T22:22:38.608Z,19.30
2018-09-02T22:25:08.765Z,19.20
2018-09-02T22:27:37.783Z,19.20
2018-09-02T22:30:07.549Z,19.20
2018-09-02T22:32:36.489Z,19.20
2018-09-02T22:35:05.489Z,19.20
2018-09-02T22:37:34.463Z,19.20
2018-09-02T22:40:03.446Z,19.20
2018-09-02T22:42:32.417Z,19.20
2018-09-02T22:45:01.349Z,19.20
2018-09-02T22:47:30.305Z,19.20
2018-09-02T22:49:59.225Z,19.20
2018-09-02T22:52:28.177Z,19.20
2018-09-02T22:54:57.079Z,19.20
2018-09-02T22:57:26.174Z,19.20
2018-09-02T22:59:55.090Z,19.20
2018-09-02T23:02:24.150Z,19.20
2018-09-02T23:04:53.068Z,19.20
2018-09-02T23:07:22.017Z,19.20
2018-09-02T23:09:50.932Z,19.20
2018-09-02T23:12:19.973Z,19.20
2018-09-02T23:14:48.882Z,19.20
2018-09-02T23:17:17.850Z,19.20
2018-09-02T23:19:46.817Z,19.10
2018-09-02T23:22:15.773Z,19.20
2018-09-02T23:24:44.813Z,19.10
2018-09-02T23:27:13.770Z,19.10
2018-09-02T23:29:42.693Z,19.10
2018-09-02T23:32:11.677Z,19.10
2018-09-02T23:34:40.646Z,19.10
2018-09-02T23:37:09.618Z,19.10
2018-09-02T23:39:38.533Z,19.10
2018-09-02T23:42:07.494Z,19.10
2018-09-02T23:44:36.492Z,19.10
2018-09-02T23:47:05.466Z,19.10
2018-09-02T23:49:34.405Z,19.10
2018-09-02T23:52:03.366Z,19.10
2018-09-02T23:54:32.293Z,19.10
2018-09-02T23:57:01.246Z,19.10
2018-09-02T23:59:30.150Z,19.10
